Time;durP1;ratioP1;P1;durP2;ratioP2;P2;SDS_P1;SDS_P2;PMS_P1;PMS_P2;Temp;Humidity;BMP_temperature;BMP_pressure;BME280_temperature;BME280_humidity;BME280_pressure;Samples;Min_cycle;Max_cycle;Signal;HPM_P1;HPM_P2
2021/08/24 00:01:33;;;;;;;2.85;1.50;;;;;;;17.41;67.81;101634.06;5009521;28;20026;-51
2021/08/24 00:03:58;;;;;;;2.45;1.83;;;;;;;17.38;67.92;101628.81;5008300;28;20017;-50
2021/08/24 00:06:24;;;;;;;1.60;1.50;;;;;;;17.39;68.18;101626.09;5011305;28;20394;-52
2021/08/24 00:08:49;;;;;;;1.95;1.85;;;;;;;17.39;67.68;101631.44;5008301;28;20073;-51
2021/08/24 00:11:14;;;;;;;2.50;1.95;;;;;;;17.40;67.75;101629.63;5016175;28;20068;-52
2021/08/24 00:13:40;;;;;;;1.90;1.73;;;;;;;17.43;67.58;101632.22;5009337;28;20105;-52
2021/08/24 00:16:06;;;;;;;1.95;1.73;;;;;;;17.39;67.76;101626.09;5010171;28;20469;-52
2021/08/24 00:18:31;;;;;;;1.80;1.70;;;;;;;17.38;67.85;101629.69;5012095;28;20025;-53
2021/08/24 00:20:57;;;;;;;1.80;1.70;;;;;;;17.38;67.79;101628.81;5012366;28;20030;-51
2021/08/24 00:23:26;;;;;;;3.25;1.73;;;;;;;17.37;67.66;101627.91;5009805;28;20026;-51
2021/08/24 00:25:52;;;;;;;3.15;1.70;;;;;;;17.40;67.56;101622.50;5009627;28;20022;-53
2021/08/24 00:28:18;;;;;;;2.42;1.98;;;;;;;17.36;67.74;101622.59;5010829;28;20095;-52
2021/08/24 00:30:44;;;;;;;1.65;1.45;;;;;;;17.36;67.58;101630.59;5012422;28;20018;-51
2021/08/24 00:33:10;;;;;;;1.50;1.40;;;;;;;17.35;67.68;101627.09;5012673;28;20482;-51
2021/08/24 00:35:39;;;;;;;1.92;1.63;;;;;;;17.37;67.73;101630.56;5012801;28;20034;-51
2021/08/24 00:38:19;;;;;;;1.65;1.55;;;;;;;17.35;67.83;101629.75;5008510;28;20112;-50
2021/08/24 00:41:04;;;;;;;2.63;2.00;;;;;;;17.34;67.70;101632.44;5011505;28;20139;-52
2021/08/24 00:43:32;;;;;;;1.98;1.75;;;;;;;17.35;67.55;101629.75;5011825;28;20030;-51
2021/08/24 00:46:07;;;;;;;1.52;1.35;;;;;;;17.28;67.78;101626.31;5012879;28;20025;-52
2021/08/24 00:48:32;;;;;;;1.98;1.73;;;;;;;17.31;67.71;101631.59;5011257;28;20370;-52
2021/08/24 00:50:58;;;;;;;2.67;1.58;;;;;;;17.30;67.61;101637.84;5011052;28;20432;-52
2021/08/24 00:53:27;;;;;;;1.73;1.60;;;;;;;17.27;67.86;101634.38;5012041;28;20021;-53
2021/08/24 00:55:56;;;;;;;2.60;1.80;;;;;;;17.28;67.67;101634.31;5009531;28;20026;-52
2021/08/24 00:58:21;;;;;;;2.75;1.80;;;;;;;17.26;67.97;101636.16;5010944;28;20421;-53
2021/08/24 01:00:47;;;;;;;3.08;2.08;;;;;;;17.26;67.90;101641.50;5012388;28;20022;-53
2021/08/24 01:03:21;;;;;;;2.10;1.75;;;;;;;17.24;67.67;101637.97;5011989;28;20075;-55
2021/08/24 01:05:52;;;;;;;2.17;1.98;;;;;;;17.24;67.91;101640.63;5011828;28;20172;-53
2021/08/24 01:08:26;;;;;;;2.28;2.08;;;;;;;17.24;67.76;101643.28;5012009;28;20473;-53
2021/08/24 01:11:04;;;;;;;2.90;1.95;;;;;;;17.20;67.95;101638.94;5010520;28;20553;-53
2021/08/24 01:13:43;;;;;;;2.20;2.00;;;;;;;17.24;67.79;101643.28;5009359;28;20025;-55
2021/08/24 01:16:24;;;;;;;2.67;2.08;;;;;;;17.20;68.03;101643.41;5010687;28;20083;-53
2021/08/24 01:18:53;;;;;;;2.13;1.60;;;;;;;17.20;67.92;101641.59;5010450;28;20025;-53
2021/08/24 01:21:32;;;;;;;3.13;2.30;;;;;;;17.22;67.72;101652.25;5023144;28;20029;-53
2021/08/24 01:24:07;;;;;;;3.00;1.90;;;;;;;17.22;67.73;101654.91;5017819;28;20023;-53
2021/08/24 01:26:41;;;;;;;2.17;1.98;;;;;;;17.23;67.63;101646.88;5012284;28;20026;-53
2021/08/24 01:29:28;;;;;;;2.00;1.80;;;;;;;17.23;67.62;101646.00;5009214;28;20033;-53
2021/08/24 01:32:18;;;;;;;2.00;1.80;;;;;;;17.23;67.60;101646.88;5009467;28;20575;-53
2021/08/24 01:35:21;;;;;;;2.13;1.92;;;;;;;17.19;67.72;101653.19;5010058;28;20033;-53
2021/08/24 01:38:04;;;;;;;2.45;1.92;;;;;;;17.20;67.48;101660.28;5010133;28;20092;-53
2021/08/24 01:40:41;;;;;;;2.25;1.83;;;;;;;17.18;67.72;101646.97;5009923;28;20516;-50
2021/08/24 01:43:08;;;;;;;2.33;2.13;;;;;;;17.19;67.64;101650.53;5015983;28;20068;-51
2021/08/24 01:45:43;;;;;;;2.33;1.90;;;;;;;17.19;67.60;101645.19;5013470;28;20017;-52
2021/08/24 01:48:15;;;;;;;3.05;2.00;;;;;;;17.18;67.65;101654.97;5024941;28;20014;-52
2021/08/24 01:50:54;;;;;;;2.63;2.20;;;;;;;17.18;67.66;101649.63;5010407;28;21108;-52
2021/08/24 01:53:26;;;;;;;1.73;1.63;;;;;;;17.18;67.51;101654.09;5010098;28;20025;-52
2021/08/24 01:55:56;;;;;;;2.40;2.00;;;;;;;17.17;67.72;101652.34;5008990;28;20109;-53
2021/08/24 01:58:26;;;;;;;2.15;1.95;;;;;;;17.16;67.61;101667.47;5009202;28;20036;-53
2021/08/24 02:00:55;;;;;;;2.08;1.73;;;;;;;17.16;67.67;101656.81;5021736;28;20038;-53
2021/08/24 02:03:27;;;;;;;3.58;2.05;;;;;;;17.16;67.55;101656.81;5011193;28;20124;-53
2021/08/24 02:05:55;;;;;;;2.40;2.20;;;;;;;17.15;67.60;101659.50;4991968;28;20022;-53
2021/08/24 02:08:23;;;;;;;3.30;2.00;;;;;;;17.14;67.63;101660.41;5007962;28;20416;-53
2021/08/24 02:10:52;;;;;;;2.42;2.10;;;;;;;17.14;67.56;101658.59;5026193;28;20458;-53
2021/08/24 02:13:18;;;;;;;2.10;1.88;;;;;;;17.15;67.66;101654.16;5010829;28;20022;-54
2021/08/24 02:15:54;;;;;;;2.65;1.90;;;;;;;17.14;67.56;101652.44;5006139;28;20030;-53
2021/08/24 02:18:23;;;;;;;2.33;2.13;;;;;;;17.13;67.54;101661.31;5008335;28;20521;-53
2021/08/24 02:20:53;;;;;;;2.38;2.00;;;;;;;17.13;67.46;101663.97;5009508;28;20376;-53
2021/08/24 02:23:22;;;;;;;2.05;1.85;;;;;;;17.13;67.56;101669.31;5025173;28;20037;-53
2021/08/24 02:25:50;;;;;;;2.83;1.90;;;;;;;17.10;67.71;101666.72;5009545;28;20489;-53
2021/08/24 02:28:38;;;;;;;2.78;1.83;;;;;;;17.11;67.69;101671.13;5023335;28;20029;-52
2021/08/24 02:31:29;;;;;;;2.88;1.77;;;;;;;17.08;67.72;101669.41;5010280;28;20133;-52
2021/08/24 02:33:54;;;;;;;2.20;2.00;;;;;;;17.09;67.61;101679.16;5005073;28;20466;-52
2021/08/24 02:36:20;;;;;;;2.03;1.83;;;;;;;17.07;67.55;101682.78;5010934;28;20097;-52
2021/08/24 02:39:00;;;;;;;2.25;2.03;;;;;;;17.09;67.65;101678.28;5008728;28;20280;-53
2021/08/24 02:41:49;;;;;;;1.98;1.70;;;;;;;17.05;67.63;101685.44;5008030;28;20409;-53
2021/08/24 02:44:22;;;;;;;3.08;2.78;;;;;;;17.05;67.52;101681.00;5010081;28;20053;-53
2021/08/24 02:46:51;;;;;;;3.33;2.10;;;;;;;17.07;67.50;101685.44;5009025;28;20389;-53
2021/08/24 02:49:24;;;;;;;2.85;1.85;;;;;;;17.04;67.59;101683.69;5014867;28;20051;-52
2021/08/24 02:51:51;;;;;;;2.10;1.90;;;;;;;17.06;67.46;101692.53;5007867;28;20418;-53
2021/08/24 02:54:30;;;;;;;2.20;1.90;;;;;;;17.02;67.59;101683.72;5008685;28;20018;-53
2021/08/24 02:56:56;;;;;;;2.50;2.15;;;;;;;17.03;67.47;101688.13;5009422;28;20018;-53
2021/08/24 02:59:22;;;;;;;2.80;2.05;;;;;;;17.02;67.59;101689.03;5013870;28;20028;-52
2021/08/24 03:01:47;;;;;;;2.38;2.15;;;;;;;17.00;67.69;101685.53;5010648;28;20041;-53
2021/08/24 03:04:13;;;;;;;2.10;1.90;;;;;;;17.03;67.58;101682.78;5010095;28;20034;-53
2021/08/24 03:06:44;;;;;;;2.70;2.25;;;;;;;17.01;67.62;101681.06;5017984;28;20468;-53
2021/08/24 03:09:10;;;;;;;3.97;2.40;;;;;;;17.01;67.58;101683.75;5008975;28;20051;-53
2021/08/24 03:11:41;;;;;;;2.78;2.13;;;;;;;17.00;67.58;101684.63;5006301;28;20029;-53
2021/08/24 03:14:20;;;;;;;3.42;2.15;;;;;;;16.98;67.68;101686.47;5008856;28;20026;-55
2021/08/24 03:16:52;;;;;;;3.42;2.10;;;;;;;17.00;67.45;101684.63;5025525;28;20025;-53
2021/08/24 03:19:22;;;;;;;2.40;2.20;;;;;;;16.99;67.64;101688.22;5007232;28;20026;-53
2021/08/24 03:21:48;;;;;;;3.22;2.03;;;;;;;16.98;67.50;101690.03;5009156;28;20022;-53
2021/08/24 03:24:14;;;;;;;2.17;1.90;;;;;;;16.97;67.44;101698.91;5009979;28;20013;-53
2021/08/24 03:26:42;;;;;;;2.40;1.90;;;;;;;16.97;67.39;101692.72;5009255;28;20033;-53
2021/08/24 03:29:15;;;;;;;3.15;2.35;;;;;;;16.93;67.38;101690.09;4997110;28;20034;-53
2021/08/24 03:31:41;;;;;;;3.20;2.30;;;;;;;16.96;67.46;101691.81;5016959;28;20034;-53
2021/08/24 03:34:07;;;;;;;1.92;1.73;;;;;;;16.92;67.31;101691.00;5009018;28;20034;-53
2021/08/24 03:36:32;;;;;;;2.38;2.15;;;;;;;16.93;67.54;101682.09;5010378;28;20021;-53
2021/08/24 03:38:58;;;;;;;3.28;2.13;;;;;;;16.95;67.63;101691.84;5007662;28;20159;-53
2021/08/24 03:41:24;;;;;;;2.78;2.00;;;;;;;16.91;67.48;101688.38;5009720;28;20038;-53
2021/08/24 03:43:49;;;;;;;2.38;1.70;;;;;;;16.92;67.67;101691.00;5010028;28;20160;-54
2021/08/24 03:46:15;;;;;;;2.45;2.10;;;;;;;16.92;67.64;101700.78;5014107;28;20117;-53
2021/08/24 03:48:40;;;;;;;2.50;2.05;;;;;;;16.91;67.56;101699.03;5007837;28;20120;-53
2021/08/24 03:51:05;;;;;;;2.72;2.13;;;;;;;16.91;67.38;101705.22;5006946;28;20022;-53
2021/08/24 03:53:34;;;;;;;2.33;2.08;;;;;;;16.89;67.56;101711.50;5013093;28;20104;-54
2021/08/24 03:55:59;;;;;;;1.75;1.65;;;;;;;16.89;67.68;101708.84;5013657;28;20022;-53
2021/08/24 03:58:25;;;;;;;2.70;2.35;;;;;;;16.89;67.54;101716.81;5010580;28;20045;-53
2021/08/24 04:00:50;;;;;;;2.05;1.85;;;;;;;16.88;67.43;101717.75;5014760;28;20043;-53
2021/08/24 04:03:16;;;;;;;2.90;2.05;;;;;;;16.88;67.42;101712.41;5025851;28;20165;-53
2021/08/24 04:05:41;;;;;;;2.53;1.98;;;;;;;16.88;67.30;101720.41;5013052;28;20022;-53
2021/08/24 04:08:07;;;;;;;2.15;1.83;;;;;;;16.88;67.43;101721.25;5013099;28;20603;-52
2021/08/24 04:10:33;;;;;;;2.53;2.28;;;;;;;16.89;67.50;101722.16;5014461;28;20037;-53
2021/08/24 04:12:58;;;;;;;2.92;2.50;;;;;;;16.86;67.47;101727.53;5011981;28;20576;-52
2021/08/24 04:15:23;;;;;;;2.00;1.67;;;;;;;16.86;67.49;101724.88;5010859;28;20038;-52
2021/08/24 04:17:48;;;;;;;3.10;2.10;;;;;;;16.86;67.45;101732.88;5013296;28;20032;-52
2021/08/24 04:20:15;;;;;;;3.75;2.28;;;;;;;16.86;67.54;101727.53;5013004;28;20037;-52
2021/08/24 04:22:45;;;;;;;2.05;1.85;;;;;;;16.84;67.49;101729.38;5012996;28;20029;-52
2021/08/24 04:25:11;;;;;;;2.60;2.40;;;;;;;16.86;67.51;101735.53;4995920;28;20058;-53
2021/08/24 04:27:37;;;;;;;2.28;1.85;;;;;;;16.80;67.52;101737.41;5059774;22;20049;-52
2021/08/24 04:30:04;;;;;;;3.28;2.40;;;;;;;16.82;67.40;101740.03;5051253;28;20025;-52
2021/08/24 04:32:30;;;;;;;2.88;2.08;;;;;;;16.82;67.52;101747.16;5052742;28;20479;-52
2021/08/24 04:34:55;;;;;;;3.13;1.85;;;;;;;16.82;67.47;101752.47;5052528;28;20527;-52
2021/08/24 04:37:22;;;;;;;2.33;1.80;;;;;;;16.82;67.54;101752.47;5052678;28;20041;-52
2021/08/24 04:39:47;;;;;;;2.10;1.88;;;;;;;16.79;67.66;101746.31;5052736;28;20019;-52
2021/08/24 04:42:12;;;;;;;3.40;2.05;;;;;;;16.79;67.62;101743.66;5053263;28;20107;-52
2021/08/24 04:44:38;;;;;;;2.35;2.10;;;;;;;16.78;67.69;101755.19;5051464;28;20108;-52
2021/08/24 04:47:03;;;;;;;2.45;2.13;;;;;;;16.78;67.50;101754.34;5051680;28;20033;-52
2021/08/24 04:49:29;;;;;;;2.65;2.38;;;;;;;16.79;67.53;101748.97;5052387;28;20311;-52
2021/08/24 04:51:54;;;;;;;3.10;2.17;;;;;;;16.77;67.56;101761.44;5036959;28;20024;-52
2021/08/24 04:54:19;;;;;;;2.88;1.85;;;;;;;16.75;67.50;101760.59;5052543;28;20062;-52
2021/08/24 04:56:45;;;;;;;3.03;2.15;;;;;;;16.75;67.47;101760.59;5051689;28;20419;-51
2021/08/24 04:59:10;;;;;;;2.38;2.17;;;;;;;16.75;67.49;101771.25;5051017;28;20459;-52
2021/08/24 05:01:36;;;;;;;3.00;1.98;;;;;;;16.74;67.52;101771.28;5035373;28;20477;-51
2021/08/24 05:04:01;;;;;;;1.80;1.67;;;;;;;16.73;67.63;101778.38;5016713;28;20087;-51
2021/08/24 05:06:27;;;;;;;3.13;2.15;;;;;;;16.72;67.33;101773.97;5052081;28;20071;-52
2021/08/24 05:08:52;;;;;;;2.15;1.95;;;;;;;16.72;67.50;101779.28;5035185;28;20029;-51
2021/08/24 05:11:18;;;;;;;2.53;2.20;;;;;;;16.72;67.55;101787.28;5036820;28;20052;-51
2021/08/24 05:13:43;;;;;;;2.15;1.92;;;;;;;16.72;67.63;101789.94;5033344;28;20381;-50
2021/08/24 05:16:10;;;;;;;1.88;1.70;;;;;;;16.71;67.38;101788.19;5050186;28;20424;-51
2021/08/24 05:18:36;;;;;;;2.17;1.98;;;;;;;16.70;67.58;101783.75;5051343;28;20025;-50
2021/08/24 05:21:07;;;;;;;1.80;1.70;;;;;;;16.68;67.66;101782.91;5036787;28;20020;-50
2021/08/24 05:23:33;;;;;;;2.88;2.00;;;;;;;16.70;67.44;101791.75;5049937;28;20116;-51
2021/08/24 05:25:59;;;;;;;2.10;1.88;;;;;;;16.66;67.52;101793.59;5034130;28;20143;-51
2021/08/24 05:28:24;;;;;;;2.38;1.85;;;;;;;16.67;67.55;101798.00;5051845;28;20074;-51
2021/08/24 05:30:49;;;;;;;2.95;2.08;;;;;;;16.66;67.72;101793.59;5050154;28;20483;-52
2021/08/24 05:33:15;;;;;;;2.47;2.15;;;;;;;16.65;67.51;101789.19;5061482;22;20167;-52
2021/08/24 05:35:40;;;;;;;2.20;2.00;;;;;;;16.67;67.68;101792.69;5061462;23;20102;-47
2021/08/24 05:38:05;;;;;;;2.20;1.95;;;;;;;16.66;67.50;101793.59;5030601;28;20034;-47
2021/08/24 05:40:30;;;;;;;2.05;1.85;;;;;;;16.64;67.57;101802.53;5031263;28;20044;-47
2021/08/24 05:42:56;;;;;;;4.20;2.05;;;;;;;16.62;67.75;101799.00;5029786;28;20104;-47
2021/08/24 05:45:21;;;;;;;2.67;2.30;;;;;;;16.62;67.82;101805.22;5027552;28;20440;-47
2021/08/24 05:47:46;;;;;;;4.05;2.28;;;;;;;16.61;67.87;101808.75;5021065;28;20033;-48
2021/08/24 05:50:12;;;;;;;2.75;2.00;;;;;;;16.63;67.62;101817.59;5020683;28;20029;-48
2021/08/24 05:52:38;;;;;;;3.75;2.33;;;;;;;16.62;67.78;101814.97;5011583;28;20021;-49
2021/08/24 05:55:03;;;;;;;2.60;2.40;;;;;;;16.59;67.72;101821.22;5019372;28;20033;-49
2021/08/24 05:57:29;;;;;;;2.25;2.05;;;;;;;16.61;67.80;101818.53;5025802;28;20548;-49
2021/08/24 05:59:54;;;;;;;2.50;1.70;;;;;;;16.61;67.76;101826.53;5017071;28;20209;-49
2021/08/24 06:02:19;;;;;;;2.38;2.10;;;;;;;16.60;67.80;101833.63;5020553;28;20100;-49
2021/08/24 06:04:45;;;;;;;3.50;2.15;;;;;;;16.61;67.71;101832.72;5013835;28;20018;-49
2021/08/24 06:07:10;;;;;;;3.20;2.25;;;;;;;16.61;67.63;101845.19;5012452;28;20079;-49
2021/08/24 06:09:36;;;;;;;2.42;2.22;;;;;;;16.59;67.69;101852.28;5015676;28;20022;-49
2021/08/24 06:12:01;;;;;;;3.85;2.80;;;;;;;16.58;67.74;101847.88;5016225;28;20500;-49
2021/08/24 06:14:27;;;;;;;3.22;2.30;;;;;;;16.57;67.71;101841.66;5016748;28;20021;-49
2021/08/24 06:16:57;;;;;;;2.85;2.05;;;;;;;16.58;67.80;101845.22;5018901;28;20580;-48
2021/08/24 06:19:23;;;;;;;2.33;2.13;;;;;;;16.57;67.94;101841.66;5008947;28;20551;-48
2021/08/24 06:21:49;;;;;;;3.92;2.30;;;;;;;16.54;67.82;101842.59;5019439;28;20026;-47
2021/08/24 06:24:14;;;;;;;3.28;2.25;;;;;;;16.55;67.86;101843.50;5011572;28;20018;-48
2021/08/24 06:26:41;;;;;;;2.53;2.33;;;;;;;16.55;67.79;101854.13;5021416;28;20466;-47
2021/08/24 06:29:07;;;;;;;2.30;2.10;;;;;;;16.54;67.90;101850.59;5016049;28;20061;-47
2021/08/24 06:31:32;;;;;;;2.42;2.22;;;;;;;16.53;67.99;101851.50;5008167;28;20056;-47
2021/08/24 06:33:59;;;;;;;2.90;2.60;;;;;;;16.54;67.97;101861.25;5016359;28;20358;-47
2021/08/24 06:36:24;;;;;;;2.10;2.00;;;;;;;16.53;67.89;101848.84;5019884;28;20030;-47
2021/08/24 06:38:51;;;;;;;2.47;2.10;;;;;;;16.52;68.02;101847.09;4997046;28;20656;-47
2021/08/24 06:41:18;;;;;;;2.42;2.22;;;;;;;16.51;68.02;101853.28;5014838;28;20036;-48
2021/08/24 06:43:43;;;;;;;2.40;2.20;;;;;;;16.52;67.99;101849.75;5015464;28;20083;-47
2021/08/24 06:46:08;;;;;;;2.55;2.25;;;;;;;16.50;68.02;101848.88;5017977;28;20034;-47
2021/08/24 06:48:34;;;;;;;2.30;2.05;;;;;;;16.51;67.98;101845.31;5011986;28;20101;-47
2021/08/24 06:51:01;;;;;;;2.90;2.70;;;;;;;16.48;68.13;101845.38;5017794;28;20087;-48
2021/08/24 06:53:26;;;;;;;3.38;2.42;;;;;;;16.47;68.18;101848.06;5020805;28;20048;-47
2021/08/24 06:55:52;;;;;;;2.60;2.40;;;;;;;16.48;68.13;101845.38;5012555;28;20469;-48
2021/08/24 06:58:19;;;;;;;3.03;2.53;;;;;;;16.50;68.12;101850.66;5008209;28;20033;-48
2021/08/24 07:00:46;;;;;;;2.80;2.28;;;;;;;16.49;68.32;101852.44;4990290;28;20017;-48
2021/08/24 07:03:12;;;;;;;3.80;2.58;;;;;;;16.48;68.14;101849.81;5011960;28;20079;-48
2021/08/24 07:05:44;;;;;;;2.60;2.40;;;;;;;16.48;68.12;101856.03;5012523;28;20443;-48
2021/08/24 07:08:10;;;;;;;3.35;3.05;;;;;;;16.47;68.14;101851.59;5013494;28;20041;-48
2021/08/24 07:10:35;;;;;;;2.63;2.42;;;;;;;16.48;68.12;101853.38;5012047;28;20037;-48
2021/08/24 07:13:00;;;;;;;3.22;2.80;;;;;;;16.47;68.15;101848.91;5018580;28;20297;-48
2021/08/24 07:15:26;;;;;;;2.90;2.70;;;;;;;16.46;68.07;101852.50;5006821;28;20037;-48
2021/08/24 07:17:55;;;;;;;3.20;2.78;;;;;;;16.45;68.15;101853.41;5015745;28;20018;-47
2021/08/24 07:20:20;;;;;;;3.38;2.67;;;;;;;16.45;68.12;101850.75;5010326;28;20068;-48
2021/08/24 07:22:46;;;;;;;3.95;3.40;;;;;;;16.44;68.08;101848.97;5013199;28;20057;-48
2021/08/24 07:25:15;;;;;;;3.28;2.97;;;;;;;16.45;68.10;101844.53;5011113;28;20578;-47
2021/08/24 07:27:40;;;;;;;2.97;2.75;;;;;;;16.44;68.22;101848.09;5013502;28;20075;-47
2021/08/24 07:30:06;;;;;;;2.80;2.60;;;;;;;16.44;68.18;101846.28;5014781;28;20476;-48
2021/08/24 07:32:32;;;;;;;2.90;2.35;;;;;;;16.41;68.16;101843.69;5021718;28;20027;-48
2021/08/24 07:34:57;;;;;;;2.85;2.63;;;;;;;16.42;68.21;101846.34;4994839;28;20025;-47
2021/08/24 07:37:23;;;;;;;3.10;2.45;;;;;;;16.42;68.15;101845.47;5018900;28;20018;-48
2021/08/24 07:39:48;;;;;;;3.75;2.80;;;;;;;16.42;68.22;101846.34;5023355;28;20022;-47
2021/08/24 07:42:13;;;;;;;2.70;2.50;;;;;;;16.42;68.15;101848.13;5015537;28;20389;-48
2021/08/24 07:44:39;;;;;;;3.65;2.85;;;;;;;16.41;68.36;101846.38;5003554;28;20707;-48
2021/08/24 07:47:06;;;;;;;2.70;2.50;;;;;;;16.41;68.27;101843.69;5008742;28;20501;-48
2021/08/24 07:49:34;;;;;;;2.50;2.30;;;;;;;16.39;68.34;101846.38;5021622;28;20464;-48
2021/08/24 07:52:00;;;;;;;2.72;2.47;;;;;;;16.41;68.33;101846.38;5013785;28;20143;-47
2021/08/24 07:54:25;;;;;;;2.95;2.67;;;;;;;16.42;68.25;101842.78;5015096;28;20053;-47
2021/08/24 07:56:51;;;;;;;3.47;2.20;;;;;;;16.41;68.47;101854.34;5002881;28;20139;-48
2021/08/24 07:59:17;;;;;;;2.83;2.63;;;;;;;16.41;68.32;101841.91;5020037;28;20611;-47
2021/08/24 08:01:42;;;;;;;2.58;2.38;;;;;;;16.41;68.43;101833.06;5016973;28;20101;-47
2021/08/24 08:04:07;;;;;;;2.75;2.38;;;;;;;16.39;68.44;101841.06;5003554;28;20026;-47
2021/08/24 08:06:33;;;;;;;3.05;2.67;;;;;;;16.40;68.45;101847.25;5016722;28;20501;-47
2021/08/24 08:08:59;;;;;;;2.72;2.53;;;;;;;16.39;68.47;101846.38;5012791;28;20038;-47
2021/08/24 08:11:25;;;;;;;2.40;2.20;;;;;;;16.38;68.46;101855.25;5016805;28;20036;-47
2021/08/24 08:13:50;;;;;;;2.55;2.22;;;;;;;16.36;68.45;101850.84;5013687;28;20033;-47
2021/08/24 08:16:16;;;;;;;2.90;2.47;;;;;;;16.38;68.44;101860.56;5014665;28;20028;-47
2021/08/24 08:18:41;;;;;;;2.70;2.42;;;;;;;16.39;68.33;101862.38;5011168;28;20026;-47
2021/08/24 08:21:07;;;;;;;4.20;2.83;;;;;;;16.39;68.39;101856.16;5013280;28;20026;-47
2021/08/24 08:23:32;;;;;;;3.78;2.35;;;;;;;16.37;68.59;101858.81;5017188;28;20017;-47
2021/08/24 08:25:57;;;;;;;3.15;2.20;;;;;;;16.37;68.54;101858.81;5022707;28;20128;-47
2021/08/24 08:28:23;;;;;;;2.60;2.25;;;;;;;16.38;68.36;101865.91;5014689;28;20048;-47
2021/08/24 08:30:48;;;;;;;2.30;2.10;;;;;;;16.37;68.61;101868.63;4998400;28;20488;-47
2021/08/24 08:33:14;;;;;;;2.53;2.10;;;;;;;16.38;68.53;101867.72;5011977;28;20100;-48
2021/08/24 08:35:40;;;;;;;2.58;2.38;;;;;;;16.38;68.56;101873.88;5023541;28;20137;-47
2021/08/24 08:38:06;;;;;;;3.15;2.20;;;;;;;16.38;68.53;101867.72;5022798;28;20033;-47
2021/08/24 08:40:42;;;;;;;2.35;2.15;;;;;;;16.38;68.62;101865.03;5016335;28;20049;-47
2021/08/24 08:43:24;;;;;;;2.60;2.40;;;;;;;16.38;68.59;101865.03;4998773;28;20111;-47
2021/08/24 08:45:50;;;;;;;2.30;2.10;;;;;;;16.38;68.68;101860.56;5011849;28;20021;-47
2021/08/24 08:48:28;;;;;;;3.45;2.97;;;;;;;16.37;68.67;101856.16;5021464;28;20389;-47
2021/08/24 08:50:57;;;;;;;2.55;2.35;;;;;;;16.36;68.83;101858.84;5014911;28;20022;-47
2021/08/24 08:53:38;;;;;;;2.72;2.30;;;;;;;16.36;68.80;101861.50;4993529;28;20021;-48
2021/08/24 08:56:11;;;;;;;2.45;2.25;;;;;;;16.37;68.83;101863.28;4998687;28;20029;-47
2021/08/24 08:58:46;;;;;;;2.47;2.28;;;;;;;16.37;68.89;101865.94;5012574;28;20167;-47
2021/08/24 09:01:21;;;;;;;2.60;2.40;;;;;;;16.34;68.92;101869.50;4997887;28;20033;-47
2021/08/24 09:03:54;;;;;;;2.85;2.65;;;;;;;16.36;68.78;101862.41;5012859;28;20030;-47
2021/08/24 09:06:23;;;;;;;2.72;1.90;;;;;;;16.37;68.65;101864.16;4998514;28;20034;-48
2021/08/24 09:08:48;;;;;;;3.90;2.92;;;;;;;16.37;68.81;101868.63;4995132;28;20037;-47
2021/08/24 09:11:14;;;;;;;2.50;2.30;;;;;;;16.36;68.79;101858.84;4996841;28;20109;-48
2021/08/24 09:13:46;;;;;;;4.78;2.78;;;;;;;16.36;68.92;101864.16;4995866;28;20029;-48
2021/08/24 09:16:17;;;;;;;2.70;2.28;;;;;;;16.38;68.79;101865.91;5011567;28;20061;-48
2021/08/24 09:18:56;;;;;;;;;;;;;;;16.40;68.58;101864.13;5013737;28;20030;-47
2021/08/24 09:21:35;;;;;;;2.60;2.40;;;;;;;16.37;68.90;101868.63;5012037;28;19913;-47
2021/08/24 09:24:06;;;;;;;2.28;2.08;;;;;;;16.36;68.99;101869.50;5015305;28;20026;-47
2021/08/24 09:26:48;;;;;;;2.75;2.55;;;;;;;16.35;68.97;101859.75;5010562;28;20108;-47
2021/08/24 09:29:16;;;;;;;3.03;2.55;;;;;;;16.38;69.03;101875.69;5001632;28;20063;-47
2021/08/24 09:31:43;;;;;;;3.20;2.92;;;;;;;16.40;68.99;101876.53;5001592;28;20032;-47
2021/08/24 09:34:11;;;;;;;2.65;2.40;;;;;;;16.38;68.82;101873.03;5000506;28;20762;-47
2021/08/24 09:36:36;;;;;;;2.63;2.42;;;;;;;16.38;68.75;101873.88;4997568;28;20398;-47
2021/08/24 09:39:03;;;;;;;2.88;2.67;;;;;;;16.37;68.95;101879.25;5009642;28;20037;-47
2021/08/24 09:41:34;;;;;;;2.63;2.40;;;;;;;16.39;68.90;101873.00;5010032;28;20022;-47
2021/08/24 09:44:24;;;;;;;4.03;2.70;;;;;;;16.40;68.91;101868.53;5009798;28;20093;-48
2021/08/24 09:46:51;;;;;;;2.95;2.65;;;;;;;16.41;68.86;101873.00;4998131;28;20042;-48
2021/08/24 09:49:22;;;;;;;2.47;2.28;;;;;;;16.41;69.02;101865.00;4999711;28;20029;-48
2021/08/24 09:51:51;;;;;;;;;;;;;;;16.42;68.79;101878.28;5012506;28;20032;-48
2021/08/24 09:54:19;;;;;;;3.28;2.72;;;;;;;16.42;68.75;101877.41;5013207;28;19909;-47
2021/08/24 09:56:51;;;;;;;3.05;2.80;;;;;;;16.37;68.99;101873.94;5015693;28;20014;-47
2021/08/24 09:59:30;;;;;;;2.60;2.25;;;;;;;16.38;68.82;101870.38;5012346;28;20025;-47
2021/08/24 10:01:56;;;;;;;3.03;2.72;;;;;;;16.41;68.98;101870.31;5012412;28;20117;-48
2021/08/24 10:04:21;;;;;;;3.05;2.75;;;;;;;16.42;68.84;101883.63;5017456;28;20160;-48
2021/08/24 10:07:03;;;;;;;4.65;2.45;;;;;;;16.42;68.93;101877.41;5015196;28;20049;-48
2021/08/24 10:09:34;;;;;;;2.70;2.50;;;;;;;16.40;68.98;101876.53;5012317;28;20018;-47
2021/08/24 10:12:20;;;;;;;2.63;2.42;;;;;;;16.44;68.70;101864.94;5014702;28;20017;-48
2021/08/24 10:14:46;;;;;;;4.25;2.95;;;;;;;16.42;68.77;101866.75;5010884;28;20025;-48
2021/08/24 10:17:18;;;;;;;3.67;2.90;;;;;;;16.41;69.51;101878.31;4997736;28;20044;-47
2021/08/24 10:19:44;;;;;;;3.35;3.08;;;;;;;16.43;69.06;101873.84;4994917;28;20030;-47
2021/08/24 10:22:15;;;;;;;3.10;2.67;;;;;;;16.46;68.95;101868.47;5014435;28;20040;-48
2021/08/24 10:24:59;;;;;;;3.05;2.85;;;;;;;16.45;69.08;101874.72;4997875;28;20129;-47
2021/08/24 10:27:31;;;;;;;2.75;2.55;;;;;;;16.45;68.84;101869.38;5014753;28;20061;-48
2021/08/24 10:30:00;;;;;;;3.10;2.70;;;;;;;16.47;68.77;101880.00;4997333;28;20028;-47
2021/08/24 10:32:29;;;;;;;3.08;2.78;;;;;;;16.44;69.01;101874.72;4993931;28;20030;-48
2021/08/24 10:34:54;;;;;;;2.80;2.60;;;;;;;16.44;68.94;101869.41;5011673;28;20101;-47
2021/08/24 10:37:26;;;;;;;3.30;2.88;;;;;;;16.45;68.88;101871.16;5014987;28;20125;-47
2021/08/24 10:40:07;;;;;;;3.55;2.92;;;;;;;16.46;68.91;101873.78;5014610;28;20036;-47
2021/08/24 10:42:34;;;;;;;2.95;2.72;;;;;;;16.48;68.69;101874.66;5010716;28;20014;-47
2021/08/24 10:45:02;;;;;;;3.45;2.65;;;;;;;16.45;69.08;101873.81;5013991;28;20041;-47
2021/08/24 10:47:51;;;;;;;2.78;2.58;;;;;;;16.49;68.85;101868.44;4994835;28;20041;-48
2021/08/24 10:50:24;;;;;;;3.17;2.55;;;;;;;16.47;68.99;101867.56;4989833;28;20299;-47
2021/08/24 10:52:54;;;;;;;2.72;2.40;;;;;;;16.48;68.94;101872.00;5005862;28;20025;-47
2021/08/24 10:55:28;;;;;;;2.60;2.40;;;;;;;16.48;68.96;101880.00;4993455;28;20018;-48
2021/08/24 10:58:05;;;;;;;3.30;3.00;;;;;;;16.50;69.44;101869.28;5007327;28;20022;-47
2021/08/24 11:00:49;;;;;;;4.32;2.58;;;;;;;16.51;69.00;101871.06;4991001;28;20137;-48
2021/08/24 11:03:29;;;;;;;2.95;2.67;;;;;;;16.50;69.02;101879.94;5007364;28;20025;-48
2021/08/24 11:06:22;;;;;;;2.85;2.65;;;;;;;16.52;68.87;101875.47;4992906;28;20018;-48
2021/08/24 11:09:01;;;;;;;3.10;2.80;;;;;;;16.50;68.92;101872.84;5011153;28;20022;-48
2021/08/24 11:11:42;;;;;;;2.75;2.55;;;;;;;16.51;68.61;101871.94;4993367;28;20017;-48
2021/08/24 11:14:43;;;;;;;;;;;;;;;16.51;68.72;101871.94;5010431;28;20086;-48
2021/08/24 11:17:23;;;;;;;2.80;2.60;;;;;;;16.52;68.59;101872.81;4941087;28;19911;-48
2021/08/24 11:20:13;;;;;;;2.40;2.20;;;;;;;16.50;68.73;101870.19;4987742;28;20038;-48
2021/08/24 11:23:00;;;;;;;3.22;2.85;;;;;;;16.51;69.02;101869.28;5009685;28;20745;-48
2021/08/24 11:25:48;;;;;;;2.97;2.67;;;;;;;16.51;68.82;101869.28;5012954;28;20084;-48
2021/08/24 11:28:46;;;;;;;3.20;2.90;;;;;;;16.52;68.75;101863.06;5007253;28;20069;-48
2021/08/24 11:31:23;;;;;;;2.90;2.60;;;;;;;16.52;68.67;101857.75;5008802;28;20432;-47
2021/08/24 11:34:00;;;;;;;2.78;2.35;;;;;;;16.55;68.67;101862.13;4989910;28;20018;-47
2021/08/24 11:36:38;;;;;;;2.90;2.70;;;;;;;16.57;68.97;101867.44;5019141;22;20052;-53
2021/08/24 11:39:09;;;;;;;3.75;3.30;;;;;;;16.53;68.87;101861.25;5008554;28;20562;-55